Time;durP1;ratioP1;P1;durP2;ratioP2;P2;SDS_P1;SDS_P2;PMS_P1;PMS_P2;Temp;Humidity;BMP_temperature;BMP_pressure;BME280_temperature;BME280_humidity;BME280_pressure;Samples;Min_cycle;Max_cycle;Signal;HPM_P1;HPM_P2
2022/06/02 00:00:40;;;;;;;13.18;11.88;;;10.50;99.90;;;;;;5040409;28;20052;-64
2022/06/02 00:03:34;;;;;;;12.80;11.38;;;10.40;99.90;;;;;;5055422;28;20079;-65
2022/06/02 00:06:14;;;;;;;12.65;11.35;;;10.40;99.90;;;;;;5105025;27;20043;-65
2022/06/02 00:08:54;;;;;;;11.43;10.30;;;10.30;99.90;;;;;;5122082;27;20459;-65
2022/06/02 00:11:29;;;;;;;12.90;11.27;;;10.40;99.90;;;;;;5124692;27;20077;-67
2022/06/02 00:14:45;;;;;;;12.35;11.05;;;10.40;99.90;;;;;;5143546;27;20324;-67
2022/06/02 00:17:39;;;;;;;12.20;10.93;;;10.30;99.90;;;;;;5035133;28;20133;-66
2022/06/02 00:20:28;;;;;;;13.25;11.95;;;10.30;99.90;;;;;;5022812;28;20049;-65
2022/06/02 00:23:11;;;;;;;13.68;11.55;;;10.30;99.90;;;;;;5106400;28;20051;-66
2022/06/02 00:25:43;;;;;;;13.75;12.00;;;10.30;99.90;;;;;;5121732;27;20351;-65
2022/06/02 00:28:34;;;;;;;13.15;11.57;;;10.20;99.90;;;;;;5120224;27;20403;-65
2022/06/02 00:31:14;;;;;;;13.13;11.00;;;10.20;99.90;;;;;;5121122;27;21489;-65
2022/06/02 00:34:02;;;;;;;12.25;10.75;;;10.10;99.90;;;;;;5140528;27;20039;-65
2022/06/02 00:36:43;;;;;;;13.82;11.48;;;10.10;99.90;;;;;;5125239;27;20122;-65
2022/06/02 00:39:09;;;;;;;13.45;12.05;;;10.10;99.90;;;;;;5124139;27;20359;-65
2022/06/02 00:41:53;;;;;;;12.88;10.93;;;10.10;99.90;;;;;;5144679;27;20031;-66
2022/06/02 00:44:31;;;;;;;12.85;11.52;;;10.10;99.90;;;;;;5143729;27;20030;-65
2022/06/02 00:47:03;;;;;;;12.55;11.27;;;10.10;99.90;;;;;;5125268;27;20113;-66
2022/06/02 00:49:54;;;;;;;14.20;12.15;;;10.00;99.90;;;;;;5139641;27;20031;-65
2022/06/02 00:52:28;;;;;;;12.68;10.32;;;10.00;99.90;;;;;;5143883;27;20043;-65
2022/06/02 00:58:00;;;;;;;14.45;11.80;;;9.90;99.90;;;;;;5145056;27;20047;-65
2022/06/02 01:00:47;;;;;;;14.35;11.55;;;9.80;99.90;;;;;;5139760;27;20467;-65
2022/06/02 01:03:17;;;;;;;14.40;12.20;;;9.90;99.90;;;;;;5144683;27;20031;-65
2022/06/02 01:06:25;;;;;;;13.85;12.07;;;9.70;99.90;;;;;;5144657;27;20745;-66
2022/06/02 01:08:56;;;;;;;14.63;12.90;;;9.90;99.90;;;;;;5139239;27;20054;-65
2022/06/02 01:11:31;;;;;;;15.00;12.63;;;9.90;99.90;;;;;;5128174;27;20555;-67
2022/06/02 01:14:11;;;;;;;13.27;11.85;;;9.90;99.90;;;;;;5146582;27;20031;-67
2022/06/02 01:16:55;;;;;;;15.02;12.30;;;9.80;99.90;;;;;;5145124;27;20047;-65
2022/06/02 01:19:54;;;;;;;12.75;11.40;;;9.80;99.90;;;;;;5143427;27;20531;-65
2022/06/02 01:22:29;;;;;;;11.88;10.68;;;9.80;99.90;;;;;;5143925;27;20050;-65
2022/06/02 01:25:27;;;;;;;14.52;11.35;;;9.80;99.90;;;;;;5125518;27;20070;-65
2022/06/02 01:28:31;;;;;;;12.68;11.35;;;9.80;99.90;;;;;;5144022;27;20042;-65
2022/06/02 01:31:22;;;;;;;12.93;11.43;;;9.80;99.90;;;;;;5123842;27;20088;-65
2022/06/02 01:34:17;;;;;;;16.95;11.68;;;9.80;99.90;;;;;;5142765;27;20039;-65
2022/06/02 01:37:06;;;;;;;13.32;11.93;;;9.70;99.90;;;;;;5146750;27;20034;-66
2022/06/02 01:39:46;;;;;;;14.05;11.38;;;9.70;99.90;;;;;;5141953;27;20050;-68
2022/06/02 01:42:46;;;;;;;12.68;11.38;;;9.70;99.90;;;;;;5124066;27;20031;-67
2022/06/02 01:45:41;;;;;;;13.15;11.75;;;9.70;99.90;;;;;;5125398;27;20118;-66
2022/06/02 01:48:35;;;;;;;13.68;11.30;;;9.70;99.90;;;;;;5123333;27;20035;-65
2022/06/02 01:51:19;;;;;;;12.15;10.77;;;9.60;99.90;;;;;;5143147;27;20062;-65
2022/06/02 01:54:02;;;;;;;13.32;11.60;;;9.60;99.90;;;;;;5126342;27;20179;-65
2022/06/02 01:56:43;;;;;;;12.97;11.33;;;9.60;99.90;;;;;;5124427;27;20069;-65
2022/06/02 01:59:32;;;;;;;13.30;11.38;;;9.60;99.90;;;;;;5140081;27;20341;-66
2022/06/02 02:02:13;;;;;;;12.10;10.85;;;9.50;99.90;;;;;;5145319;27;20340;-65
2022/06/02 02:04:57;;;;;;;13.32;11.80;;;9.50;99.90;;;;;;5127172;27;20041;-65
2022/06/02 02:08:10;;;;;;;13.20;10.30;;;9.40;99.90;;;;;;5145994;27;20118;-65
2022/06/02 02:10:52;;;;;;;11.88;10.68;;;9.40;99.90;;;;;;5095138;27;20047;-65
2022/06/02 02:13:26;;;;;;;12.25;10.95;;;9.30;99.90;;;;;;5144530;27;20035;-66
2022/06/02 02:16:13;;;;;;;11.25;10.05;;;9.20;99.90;;;;;;5124591;27;20333;-66
2022/06/02 02:19:10;;;;;;;13.10;11.27;;;9.30;99.90;;;;;;5121609;27;20376;-67
2022/06/02 02:22:03;;;;;;;12.70;11.43;;;9.30;99.90;;;;;;5102572;27;20053;-65
2022/06/02 02:25:01;;;;;;;13.43;11.07;;;9.30;99.90;;;;;;5115421;27;20100;-67
2022/06/02 02:28:02;;;;;;;12.85;11.13;;;9.30;99.90;;;;;;5060929;27;20079;-66
2022/06/02 02:30:43;;;;;;;12.55;11.23;;;9.30;99.90;;;;;;5117033;27;20511;-65
2022/06/02 02:33:39;;;;;;;13.60;11.15;;;9.30;99.90;;;;;;5121928;27;20036;-65
2022/06/02 02:36:15;;;;;;;12.23;10.93;;;9.30;99.90;;;;;;5107280;27;20433;-65
2022/06/02 02:39:02;;;;;;;13.02;10.27;;;9.30;99.90;;;;;;5121675;27;20035;-64
2022/06/02 02:41:36;;;;;;;13.35;10.93;;;9.30;99.90;;;;;;5119466;27;20447;-66
2022/06/02 02:44:19;;;;;;;12.18;10.77;;;9.30;99.90;;;;;;5116794;27;20042;-66
2022/06/02 02:47:15;;;;;;;13.45;11.45;;;9.20;99.90;;;;;;5094341;28;20039;-65
2022/06/02 02:49:55;;;;;;;13.32;11.93;;;9.20;99.90;;;;;;5113571;27;20079;-65
2022/06/02 02:52:49;;;;;;;12.45;11.18;;;9.20;99.90;;;;;;5104588;27;20050;-65
2022/06/02 02:55:29;;;;;;;15.80;12.65;;;9.20;99.90;;;;;;5104169;27;20039;-64
2022/06/02 02:57:57;;;;;;;14.43;12.50;;;9.20;99.90;;;;;;5121530;27;20472;-66
2022/06/02 03:00:43;;;;;;;14.40;12.30;;;9.20;99.90;;;;;;5118045;27;20410;-67
2022/06/02 03:03:29;;;;;;;13.30;12.00;;;9.10;99.90;;;;;;5102422;27;20043;-66
2022/06/02 03:06:27;;;;;;;14.90;12.60;;;9.20;99.90;;;;;;5122216;27;20043;-66
2022/06/02 03:09:30;;;;;;;13.45;11.80;;;9.10;99.90;;;;;;5091409;27;20043;-65
2022/06/02 03:12:09;;;;;;;12.18;10.88;;;9.00;99.90;;;;;;5115237;27;20652;-65
2022/06/02 03:15:06;;;;;;;13.70;11.45;;;9.00;99.90;;;;;;5116221;27;20379;-65
2022/06/02 03:18:29;;;;;;;12.85;11.27;;;9.00;99.90;;;;;;5119087;27;20058;-66
2022/06/02 03:21:18;;;;;;;13.82;12.32;;;9.00;99.90;;;;;;5037454;28;20041;-67
2022/06/02 03:24:08;;;;;;;14.63;12.63;;;8.90;99.90;;;;;;5038410;28;20359;-66
2022/06/02 03:26:46;;;;;;;14.13;12.27;;;9.00;99.90;;;;;;5089680;27;20044;-66
2022/06/02 03:29:45;;;;;;;15.77;12.88;;;9.00;99.90;;;;;;5096748;27;20066;-65
2022/06/02 03:32:26;;;;;;;13.38;11.95;;;9.00;99.90;;;;;;5118926;27;20324;-65
2022/06/02 03:35:04;;;;;;;15.48;12.57;;;9.00;99.90;;;;;;5118916;27;20043;-66
2022/06/02 03:37:36;;;;;;;14.32;12.73;;;9.00;99.90;;;;;;5118452;27;20109;-65
2022/06/02 03:40:10;;;;;;;13.10;11.70;;;8.90;99.90;;;;;;5101967;27;20095;-66
2022/06/02 03:42:51;;;;;;;12.70;11.05;;;8.90;99.90;;;;;;5101699;27;20032;-67
2022/06/02 03:45:38;;;;;;;13.52;11.93;;;8.90;99.90;;;;;;5121746;27;20075;-66
2022/06/02 03:48:35;;;;;;;13.13;11.82;;;9.00;99.90;;;;;;5123661;27;20046;-65
2022/06/02 03:51:18;;;;;;;14.63;12.80;;;9.00;99.90;;;;;;5119608;27;20038;-66
2022/06/02 03:54:04;;;;;;;15.55;11.93;;;9.00;99.90;;;;;;5099510;27;20039;-68
2022/06/02 03:56:59;;;;;;;11.48;10.23;;;9.10;99.90;;;;;;5108220;27;20488;-65
2022/06/02 03:59:51;;;;;;;13.95;11.60;;;9.10;99.90;;;;;;5115218;27;20088;-65
2022/06/02 04:02:28;;;;;;;13.45;11.68;;;9.00;99.90;;;;;;5098987;28;20039;-68
2022/06/02 04:05:09;;;;;;;12.85;10.80;;;9.00;99.90;;;;;;5116179;27;20102;-65
2022/06/02 04:07:39;;;;;;;13.48;11.25;;;9.00;99.90;;;;;;5098335;28;20035;-65
2022/06/02 04:10:12;;;;;;;11.90;10.57;;;9.10;99.90;;;;;;5094335;28;20036;-65
2022/06/02 04:16:12;;;;;;;12.93;11.05;;;9.10;99.90;;;;;;5119830;28;20035;-65
2022/06/02 04:18:46;;;;;;;11.68;10.23;;;9.10;99.90;;;;;;5111542;28;20356;-67
2022/06/02 04:21:18;;;;;;;12.82;10.55;;;9.10;99.90;;;;;;5113714;27;20082;-66
2022/06/02 04:24:26;;;;;;;10.73;9.63;;;9.10;99.90;;;;;;5117318;27;20100;-64
2022/06/02 04:26:58;;;;;;;12.07;10.05;;;9.20;99.90;;;;;;5112510;28;20118;-66
2022/06/02 04:29:45;;;;;;;14.48;10.43;;;9.20;99.90;;;;;;5134048;27;20035;-64
2022/06/02 04:32:22;;;;;;;12.82;10.70;;;9.30;99.90;;;;;;5138556;27;20045;-66
2022/06/02 04:35:12;;;;;;;15.60;10.55;;;9.30;99.90;;;;;;5111490;28;20463;-66
2022/06/02 04:38:19;;;;;;;14.23;10.60;;;9.40;99.90;;;;;;5094392;28;20467;-66
2022/06/02 04:41:03;;;;;;;10.95;9.80;;;9.40;99.90;;;;;;5112422;28;20098;-65
2022/06/02 04:44:07;;;;;;;12.40;10.40;;;9.40;99.90;;;;;;5117221;28;20047;-67
2022/06/02 04:46:41;;;;;;;11.82;9.45;;;9.50;99.90;;;;;;5112388;27;20276;-66
2022/06/02 04:49:35;;;;;;;11.93;10.68;;;9.60;99.90;;;;;;5113068;27;20046;-65
2022/06/02 04:52:26;;;;;;;12.05;10.70;;;9.80;99.90;;;;;;5143297;27;20050;-65
2022/06/02 04:55:14;;;;;;;12.90;11.43;;;10.80;99.90;;;;;;5112152;28;20034;-65
2022/06/02 04:57:54;;;;;;;12.70;10.98;;;12.00;99.90;;;;;;5102287;28;20044;-66
2022/06/02 05:00:38;;;;;;;12.77;10.50;;;13.30;99.90;;;;;;5124636;27;20032;-66
2022/06/02 05:03:11;;;;;;;;;;;14.20;99.90;;;;;;5106338;27;20049;-65
2022/06/02 05:06:13;;;;;;;10.27;9.00;;;14.90;99.90;;;;;;5120189;27;19915;-66
2022/06/02 05:09:02;;;;;;;10.48;8.55;;;16.10;99.90;;;;;;5133453;27;20483;-67
2022/06/02 05:11:45;;;;;;;12.65;9.35;;;16.90;99.90;;;;;;5109324;28;20044;-66
2022/06/02 05:14:31;;;;;;;13.00;9.47;;;17.70;99.90;;;;;;5137953;27;20454;-68
2022/06/02 05:17:21;;;;;;;10.50;9.07;;;18.30;99.90;;;;;;5138282;27;20341;-65
2022/06/02 05:19:53;;;;;;;10.18;8.18;;;18.50;99.90;;;;;;5136663;27;20038;-64
2022/06/02 05:22:57;;;;;;;9.27;8.25;;;19.10;99.90;;;;;;5142024;27;20372;-66
2022/06/02 05:25:31;;;;;;;10.73;7.90;;;19.50;99.90;;;;;;5117849;27;20134;-66
2022/06/02 05:28:16;;;;;;;9.70;8.20;;;19.60;99.90;;;;;;5146541;27;20465;-65
2022/06/02 05:31:12;;;;;;;9.48;8.35;;;20.00;99.90;;;;;;5120007;27;20114;-66
2022/06/02 05:34:00;;;;;;;9.75;8.70;;;20.10;99.90;;;;;;5122304;27;20031;-65
2022/06/02 05:37:02;;;;;;;9.52;7.95;;;20.20;99.90;;;;;;5120282;27;20043;-65
2022/06/02 05:39:40;;;;;;;8.82;7.50;;;20.30;99.90;;;;;;5098022;27;20450;-67
2022/06/02 05:42:35;;;;;;;15.32;8.82;;;20.50;99.90;;;;;;5140444;27;20145;-66
2022/06/02 05:45:04;;;;;;;10.88;7.80;;;21.10;99.90;;;;;;5107420;27;20058;-66
2022/06/02 05:47:33;;;;;;;10.07;7.43;;;21.20;99.90;;;;;;5123457;27;20042;-70
2022/06/02 05:50:08;;;;;;;10.68;7.38;;;21.10;99.90;;;;;;5109198;27;20043;-68
2022/06/02 05:53:02;;;;;;;13.70;8.10;;;21.20;99.90;;;;;;5141621;27;20042;-69
2022/06/02 05:55:31;;;;;;;;;;;21.40;99.90;;;;;;5084093;27;20100;-68
2022/06/02 05:58:16;;;;;;;9.82;7.30;;;21.10;99.90;;;;;;5121656;27;19919;-65
2022/06/02 06:01:09;;;;;;;10.98;7.80;;;20.70;99.90;;;;;;5141820;27;20038;-65
2022/06/02 06:03:50;;;;;;;8.90;6.65;;;20.80;99.90;;;;;;5139414;27;20113;-67
2022/06/02 06:06:21;;;;;;;12.50;6.40;;;21.00;99.90;;;;;;5118249;27;20038;-66
2022/06/02 06:09:01;;;;;;;10.68;5.95;;;21.50;99.90;;;;;;5116193;27;20054;-67
2022/06/02 06:12:02;;;;;;;11.57;5.40;;;21.50;99.90;;;;;;5140546;27;20066;-67
2022/06/02 06:14:49;;;;;;;7.05;4.38;;;21.50;99.90;;;;;;5104202;27;20057;-68
2022/06/02 06:17:38;;;;;;;5.78;4.20;;;21.10;99.90;;;;;;5143731;27;20047;-66
2022/06/02 06:20:22;;;;;;;5.80;3.65;;;21.20;99.90;;;;;;5141258;27;20038;-67
2022/06/02 06:23:29;;;;;;;5.28;3.83;;;21.20;99.90;;;;;;5133057;27;20448;-68
2022/06/02 06:26:13;;;;;;;4.78;3.67;;;21.70;99.90;;;;;;5106923;27;20050;-67
2022/06/02 06:28:45;;;;;;;;;;;21.50;99.90;;;;;;5134827;27;20050;-70
2022/06/02 06:31:36;;;;;;;3.67;2.13;;;21.20;99.90;;;;;;5106633;27;21656;-68
2022/06/02 06:34:28;;;;;;;5.47;2.67;;;21.10;99.90;;;;;;5139929;27;20067;-67
2022/06/02 06:37:02;;;;;;;6.25;2.72;;;21.00;99.90;;;;;;5101849;27;20408;-67
2022/06/02 06:39:36;;;;;;;;;;;20.90;99.90;;;;;;5138585;27;20031;-68
2022/06/02 06:42:21;;;;;;;;;;;20.50;99.70;;;;;;5104869;27;19915;-67
2022/06/02 06:45:03;;;;;;;3.85;2.28;;;20.60;99.90;;;;;;5122127;27;19915;-67
2022/06/02 06:47:42;;;;;;;5.28;2.60;;;20.70;99.20;;;;;;5117193;27;20035;-69
2022/06/02 06:50:29;;;;;;;5.05;2.70;;;21.00;99.60;;;;;;5116113;27;20043;-69
2022/06/02 06:53:04;;;;;;;4.75;2.53;;;21.20;99.70;;;;;;5140318;27;20054;-68
2022/06/02 06:56:14;;;;;;;5.55;2.58;;;21.00;99.20;;;;;;5141413;27;20031;-69
2022/06/02 06:58:46;;;;;;;7.10;3.15;;;20.40;99.90;;;;;;5140193;27;20388;-68
2022/06/02 07:01:42;;;;;;;5.13;2.53;;;19.90;99.90;;;;;;5117898;27;20087;-68
2022/06/02 07:04:32;;;;;;;3.85;2.40;;;19.20;99.90;;;;;;5118031;27;20051;-68
2022/06/02 07:07:12;;;;;;;3.90;2.22;;;18.60;99.90;;;;;;5142768;27;20031;-67
2022/06/02 07:10:10;;;;;;;5.88;2.42;;;18.20;99.90;;;;;;5120532;27;20117;-70
2022/06/02 07:12:50;;;;;;;4.57;2.38;;;17.90;99.90;;;;;;5101959;27;20543;-67
2022/06/02 07:15:26;;;;;;;4.55;2.75;;;17.90;99.90;;;;;;5118969;27;20047;-68
2022/06/02 07:18:04;;;;;;;6.10;2.83;;;18.00;99.90;;;;;;5118467;27;20055;-69
2022/06/02 07:21:02;;;;;;;4.30;2.53;;;17.90;99.90;;;;;;5116398;27;20050;-68
2022/06/02 07:23:36;;;;;;;7.25;2.30;;;17.70;99.90;;;;;;5117289;27;20114;-67
2022/06/02 07:26:31;;;;;;;4.82;2.00;;;17.10;99.90;;;;;;5114508;27;20050;-67
2022/06/02 07:29:18;;;;;;;2.63;1.80;;;16.90;99.90;;;;;;5133458;27;20031;-67
2022/06/02 07:32:11;;;;;;;7.15;2.08;;;17.00;99.90;;;;;;5138306;27;20061;-68
2022/06/02 07:34:52;;;;;;;3.00;1.70;;;17.30;99.90;;;;;;5142836;27;20159;-67
2022/06/02 07:37:26;;;;;;;4.30;1.98;;;17.30;99.90;;;;;;5118631;27;20038;-67
2022/06/02 07:40:08;;;;;;;3.13;1.73;;;17.40;99.90;;;;;;5119035;27;20038;-68
2022/06/02 07:42:49;;;;;;;3.80;2.03;;;17.40;99.90;;;;;;5117463;27;20042;-67
2022/06/02 07:45:36;;;;;;;4.90;2.10;;;17.70;99.90;;;;;;5142362;27;20035;-68
2022/06/02 07:48:25;;;;;;;3.35;2.00;;;17.70;99.90;;;;;;5143298;27;20088;-68
2022/06/02 07:51:13;;;;;;;5.18;2.00;;;17.40;99.90;;;;;;5114876;27;20173;-69
2022/06/02 07:54:05;;;;;;;4.05;2.17;;;17.30;99.90;;;;;;5119122;27;20068;-67
2022/06/02 07:56:44;;;;;;;6.30;3.03;;;17.50;99.90;;;;;;5112768;27;20046;-68
2022/06/02 07:59:40;;;;;;;7.88;2.75;;;17.40;99.90;;;;;;5115381;27;20367;-67
2022/06/02 08:02:27;;;;;;;5.63;2.63;;;17.10;99.90;;;;;;5114559;27;20031;-68
2022/06/02 08:05:23;;;;;;;6.95;2.13;;;16.80;99.90;;;;;;5138775;27;20035;-67
2022/06/02 08:07:53;;;;;;;5.32;2.03;;;16.70;99.90;;;;;;5137895;27;20487;-67
2022/06/02 08:10:43;;;;;;;6.13;2.20;;;17.10;99.90;;;;;;5140712;27;20039;-67
2022/06/02 08:13:27;;;;;;;2.63;1.58;;;17.40;99.90;;;;;;5115718;27;20122;-67
2022/06/02 08:16:19;;;;;;;3.95;1.50;;;17.80;99.90;;;;;;5116837;27;20031;-67
2022/06/02 08:18:53;;;;;;;2.63;1.70;;;17.80;99.90;;;;;;5098661;28;20419;-69
2022/06/02 08:21:27;;;;;;;2.97;1.50;;;17.80;99.90;;;;;;5101802;28;20152;-67
2022/06/02 08:24:07;;;;;;;4.75;1.67;;;17.60;99.90;;;;;;5101797;28;20118;-67
2022/06/02 08:26:57;;;;;;;2.45;1.70;;;17.60;99.90;;;;;;5093521;28;20069;-67
2022/06/02 08:29:42;;;;;;;4.90;2.40;;;17.50;99.90;;;;;;5119134;28;20357;-69
2022/06/02 08:32:25;;;;;;;3.40;1.60;;;17.50;99.90;;;;;;5118475;28;20050;-67
2022/06/02 08:35:12;;;;;;;2.47;1.42;;;17.50;99.90;;;;;;5101754;28;20408;-67
2022/06/02 08:38:07;;;;;;;4.32;2.13;;;17.50;99.90;;;;;;5121000;28;20119;-66
2022/06/02 08:40:54;;;;;;;4.45;2.20;;;17.60;99.90;;;;;;5100175;28;20452;-67
2022/06/02 08:43:34;;;;;;;4.63;2.25;;;17.50;99.90;;;;;;5118216;28;20043;-67
2022/06/02 08:46:25;;;;;;;3.35;1.85;;;17.70;99.90;;;;;;5119147;28;20114;-67
2022/06/02 08:48:59;;;;;;;2.15;1.77;;;17.80;99.90;;;;;;5119634;28;20039;-67
2022/06/02 08:51:46;;;;;;;3.38;2.03;;;17.70;99.90;;;;;;5119639;28;20425;-66
2022/06/02 08:54:33;;;;;;;2.75;1.90;;;17.40;99.90;;;;;;5101963;28;20036;-67
2022/06/02 08:57:36;;;;;;;4.35;2.00;;;17.30;99.90;;;;;;5107368;27;20035;-67
2022/06/02 09:00:30;;;;;;;7.93;2.55;;;17.50;99.90;;;;;;5120753;27;20035;-66
2022/06/02 09:03:14;;;;;;;5.18;1.90;;;17.50;99.90;;;;;;5106538;27;20098;-66
2022/06/02 09:05:49;;;;;;;3.38;1.80;;;17.80;99.90;;;;;;5107610;27;20092;-66
2022/06/02 09:08:27;;;;;;;3.92;2.13;;;17.80;99.90;;;;;;5088889;27;20047;-67
2022/06/02 09:11:21;;;;;;;3.05;1.90;;;18.00;99.90;;;;;;5118207;27;20039;-67
2022/06/02 09:14:08;;;;;;;3.83;2.20;;;17.80;99.90;;;;;;5121124;27;20042;-68
2022/06/02 09:16:43;;;;;;;3.80;2.13;;;17.50;99.90;;;;;;5125954;27;20049;-66
2022/06/02 09:19:14;;;;;;;4.07;2.25;;;17.30;99.90;;;;;;5138898;27;20039;-66
2022/06/02 09:21:58;;;;;;;5.00;2.20;;;17.20;99.90;;;;;;5123105;27;20070;-67
2022/06/02 09:24:47;;;;;;;3.17;2.22;;;17.40;99.90;;;;;;5125966;27;20095;-67
2022/06/02 09:27:49;;;;;;;3.85;2.30;;;17.50;99.90;;;;;;5142669;27;20457;-67
2022/06/02 09:30:19;;;;;;;4.80;1.90;;;17.80;99.90;;;;;;5137398;27;20468;-67
2022/06/02 09:33:33;;;;;;;2.75;2.00;;;18.20;99.90;;;;;;5142649;27;20365;-66
2022/06/02 09:36:21;;;;;;;2.78;1.83;;;18.40;99.90;;;;;;5140602;27;20042;-66
2022/06/02 09:39:11;;;;;;;2.20;1.63;;;18.20;99.90;;;;;;5140041;27;20038;-68
2022/06/02 09:42:38;;;;;;;3.80;1.73;;;18.10;99.90;;;;;;5120827;27;20043;-66
2022/06/02 09:45:27;;;;;;;4.07;1.80;;;18.20;99.90;;;;;;5070783;27;20386;-65
2022/06/02 09:48:27;;;;;;;4.25;1.58;;;18.30;99.90;;;;;;5120682;27;20070;-68
2022/06/02 09:51:02;;;;;;;4.90;1.80;;;18.40;99.80;;;;;;5142224;27;20038;-66
2022/06/02 09:54:05;;;;;;;2.45;1.42;;;18.60;99.00;;;;;;5140892;27;20038;-68
2022/06/02 09:56:49;;;;;;;1.85;1.40;;;18.80;99.20;;;;;;5143730;27;20032;-68
2022/06/02 09:59:30;;;;;;;2.37;1.70;;;19.10;98.30;;;;;;5142195;27;20042;-67
2022/06/02 10:02:25;;;;;;;5.20;2.15;;;19.20;99.10;;;;;;5144178;27;20047;-68
2022/06/02 10:05:18;;;;;;;4.13;2.35;;;19.20;99.90;;;;;;5118687;27;20054;-67
2022/06/02 10:08:09;;;;;;;3.90;1.75;;;19.00;99.90;;;;;;5142953;27;20039;-66
2022/06/02 10:10:59;;;;;;;2.38;1.67;;;18.70;99.90;;;;;;5142518;27;20114;-67
2022/06/02 10:13:48;;;;;;;2.58;1.50;;;18.80;99.90;;;;;;5121656;27;20069;-67
2022/06/02 10:16:45;;;;;;;3.10;1.85;;;18.90;99.50;;;;;;5140809;27;20440;-67
2022/06/02 10:19:33;;;;;;;6.15;2.00;;;18.90;99.30;;;;;;5140545;27;20825;-67
2022/06/02 10:22:15;;;;;;;4.45;1.58;;;18.70;99.80;;;;;;5144811;27;20146;-67
2022/06/02 10:24:40;;;;;;;2.55;1.50;;;18.80;99.60;;;;;;5144931;27;20042;-68
2022/06/02 10:27:37;;;;;;;6.18;1.70;;;18.80;99.50;;;;;;5143511;27;20062;-67
2022/06/02 10:30:50;;;;;;;2.78;1.50;;;18.90;99.10;;;;;;5144160;27;20038;-67
2022/06/02 10:33:42;;;;;;;3.75;1.80;;;19.10;98.80;;;;;;5143765;27;20430;-67
2022/06/02 10:36:54;;;;;;;3.25;1.40;;;19.40;99.10;;;;;;5144955;27;20053;-68
2022/06/02 10:39:54;;;;;;;3.22;1.73;;;19.60;98.60;;;;;;5106252;27;20023;-68
2022/06/02 10:42:50;;;;;;;6.68;1.92;;;19.30;99.70;;;;;;5119311;27;20042;-67
2022/06/02 10:45:41;;;;;;;2.88;1.73;;;19.40;99.80;;;;;;5102396;27;20082;-67
2022/06/02 10:48:15;;;;;;;2.45;1.70;;;19.20;99.60;;;;;;5139656;27;20107;-67
2022/06/02 10:51:27;;;;;;;4.25;1.65;;;19.30;99.40;;;;;;5144233;27;20050;-67
2022/06/02 10:54:11;;;;;;;2.75;1.65;;;19.30;99.60;;;;;;5133317;27;20035;-68
2022/06/02 10:56:39;;;;;;;;;;;19.30;99.60;;;;;;5143761;27;20043;-67
2022/06/02 10:59:35;;;;;;;2.38;1.58;;;19.30;99.80;;;;;;5141689;27;19938;-67
2022/06/02 11:02:23;;;;;;;2.78;1.77;;;19.20;99.50;;;;;;5141447;27;20043;-68
2022/06/02 11:05:09;;;;;;;4.15;1.58;;;19.20;99.00;;;;;;5140496;27;20070;-68
2022/06/02 11:08:20;;;;;;;1.73;1.38;;;19.30;99.50;;;;;;5140623;27;20439;-66
2022/06/02 11:11:15;;;;;;;3.15;1.60;;;19.10;99.10;;;;;;5146176;27;20034;-67
2022/06/02 11:14:06;;;;;;;3.25;1.60;;;19.20;99.40;;;;;;5146030;27;20134;-66
2022/06/02 11:17:14;;;;;;;2.15;1.42;;;19.30;99.90;;;;;;5143076;27;20054;-66
2022/06/02 11:20:21;;;;;;;2.90;1.83;;;19.10;99.90;;;;;;5060832;28;20036;-66
2022/06/02 11:23:24;;;;;;;4.25;2.10;;;18.80;99.90;;;;;;5046770;28;20185;-66
2022/06/02 11:26:17;;;;;;;6.05;1.90;;;19.10;99.90;;;;;;5047395;28;20036;-67
2022/06/02 11:29:01;;;;;;;2.40;1.60;;;19.40;99.90;;;;;;5134732;27;20547;-67
2022/06/02 11:31:54;;;;;;;;;;;19.70;99.90;;;;;;5105831;27;20467;-68
2022/06/02 11:34:32;;;;;;;3.58;1.80;;;19.30;99.50;;;;;;5134755;27;19915;-67
2022/06/02 11:37:33;;;;;;;3.40;1.70;;;19.10;99.70;;;;;;5139965;27;20031;-68
2022/06/02 11:40:20;;;;;;;1.50;1.40;;;19.30;99.90;;;;;;5139011;27;20042;-68
2022/06/02 11:43:04;;;;;;;2.42;1.40;;;19.30;99.30;;;;;;5139365;27;20055;-67
2022/06/02 11:45:57;;;;;;;;;;;19.30;99.70;;;;;;5118911;27;20106;-67
2022/06/02 11:48:41;;;;;;;4.05;1.52;;;19.30;99.10;;;;;;5143918;27;19946;-67
2022/06/02 11:51:34;;;;;;;3.42;1.27;;;19.40;99.40;;;;;;5099186;27;20088;-67
2022/06/02 11:54:19;;;;;;;3.50;1.90;;;19.70;98.80;;;;;;5141028;27;20062;-67
2022/06/02 11:57:11;;;;;;;2.35;1.63;;;19.80;98.70;;;;;;5118675;27;20108;-67
2022/06/02 12:00:02;;;;;;;3.63;1.30;;;19.80;98.80;;;;;;5138792;27;20035;-67
2022/06/02 12:02:59;;;;;;;4.00;1.55;;;19.80;98.80;;;;;;5139052;27;20040;-69
2022/06/02 12:05:46;;;;;;;2.72;1.80;;;19.90;99.20;;;;;;5140737;27;20046;-67
2022/06/02 12:08:41;;;;;;;1.92;1.60;;;19.80;99.30;;;;;;5118209;27;20091;-67
2022/06/02 12:11:16;;;;;;;2.80;1.45;;;19.80;99.20;;;;;;5132249;27;20078;-68
2022/06/02 12:14:00;;;;;;;2.33;1.50;;;19.80;99.60;;;;;;5143738;27;20087;-67
2022/06/02 12:16:26;;;;;;;3.28;1.83;;;19.80;99.50;;;;;;5137946;27;20078;-67
2022/06/02 12:18:55;;;;;;;3.95;1.60;;;19.60;99.30;;;;;;5141735;27;20128;-67
2022/06/02 12:21:44;;;;;;;3.85;1.60;;;19.70;99.50;;;;;;5140494;27;20047;-68
2022/06/02 12:24:40;;;;;;;2.92;1.67;;;19.70;99.20;;;;;;5140309;27;20044;-68
2022/06/02 12:27:57;;;;;;;4.82;1.90;;;19.70;99.20;;;;;;5114408;28;20043;-67
2022/06/02 12:31:10;;;;;;;2.33;1.65;;;20.00;99.20;;;;;;5143328;27;20395;-67
2022/06/02 12:34:10;;;;;;;5.65;1.90;;;20.30;98.80;;;;;;5065300;27;20074;-67
2022/06/02 12:37:10;;;;;;;3.22;1.48;;;20.50;98.70;;;;;;5103944;27;20071;-68
2022/06/02 12:39:54;;;;;;;3.70;1.80;;;20.70;98.40;;;;;;5110760;27;20118;-67
2022/06/02 12:42:41;;;;;;;3.80;1.70;;;20.60;97.80;;;;;;5146846;27;20356;-68
2022/06/02 12:45:45;;;;;;;2.67;1.42;;;20.50;98.20;;;;;;5137324;27;20043;-71
2022/06/02 12:48:43;;;;;;;4.40;2.00;;;20.30;98.20;;;;;;5104403;27;20126;-69
2022/06/02 12:51:26;;;;;;;3.78;1.58;;;20.30;98.20;;;;;;5142023;27;20348;-68
2022/06/02 12:54:07;;;;;;;3.25;1.80;;;20.20;98.00;;;;;;5142614;27;20399;-70
2022/06/02 12:56:47;;;;;;;2.72;1.80;;;20.20;98.20;;;;;;5142870;27;20031;-68
2022/06/02 12:59:50;;;;;;;3.67;1.80;;;20.30;98.40;;;;;;5142001;27;20046;-68
2022/06/02 13:02:22;;;;;;;2.55;1.50;;;20.60;98.50;;;;;;5121506;27;20118;-68
2022/06/02 13:05:09;;;;;;;2.92;1.60;;;20.60;98.00;;;;;;5119401;27;20422;-68
2022/06/02 13:07:56;;;;;;;1.75;1.30;;;20.50;97.80;;;;;;5121468;27;20035;-68
2022/06/02 13:10:31;;;;;;;2.50;1.50;;;20.60;98.00;;;;;;5140181;27;20046;-70
2022/06/02 13:13:27;;;;;;;3.47;1.50;;;20.70;97.40;;;;;;5145365;27;20035;-68
2022/06/02 13:16:06;;;;;;;3.00;1.48;;;20.70;97.40;;;;;;5144295;27;20031;-68
2022/06/02 13:18:34;;;;;;;2.10;1.50;;;20.70;97.10;;;;;;5143391;27;20043;-68
2022/06/02 13:21:19;;;;;;;1.55;1.15;;;20.80;97.00;;;;;;5141265;27;20047;-68
2022/06/02 13:24:22;;;;;;;2.08;1.30;;;20.90;96.70;;;;;;5144426;27;20047;-67
2022/06/02 13:27:41;;;;;;;3.75;1.40;;;21.00;96.50;;;;;;5141466;27;20110;-68
2022/06/02 13:30:45;;;;;;;3.40;1.38;;;20.90;96.80;;;;;;5034699;28;20049;-68
2022/06/02 13:33:34;;;;;;;2.65;1.50;;;21.00;96.70;;;;;;5143097;27;20100;-68
2022/06/02 13:36:36;;;;;;;3.22;1.45;;;20.80;96.70;;;;;;5145856;27;20084;-68
2022/06/02 13:39:05;;;;;;;3.25;1.60;;;20.80;96.50;;;;;;5121642;27;20110;-68
2022/06/02 13:42:23;;;;;;;2.55;1.67;;;20.80;96.50;;;;;;5142488;27;20043;-70
2022/06/02 13:45:13;;;;;;;3.72;1.30;;;21.10;96.80;;;;;;5033211;28;20033;-68
2022/06/02 13:48:10;;;;;;;3.70;1.40;;;21.10;96.00;;;;;;5022095;28;20336;-67
2022/06/02 13:51:09;;;;;;;6.53;1.95;;;21.50;96.30;;;;;;5039100;28;20041;-67
2022/06/02 13:59:42;;;;;;;3.25;1.35;;;21.80;95.50;;;;;;5138620;27;20047;-66
2022/06/02 14:02:26;;;;;;;2.88;1.40;;;22.00;96.00;;;;;;5140717;27;20086;-67
2022/06/02 14:05:17;;;;;;;1.52;1.33;;;22.40;96.20;;;;;;5141393;27;20099;-67
2022/06/02 14:08:24;;;;;;;2.92;1.40;;;22.60;95.30;;;;;;5142711;27;20357;-67
2022/06/02 14:11:16;;;;;;;3.03;1.48;;;22.60;95.00;;;;;;5036735;28;20470;-67
2022/06/02 14:14:15;;;;;;;1.17;1.00;;;22.70;94.70;;;;;;5142907;27;20039;-67
2022/06/02 14:17:02;;;;;;;2.75;1.52;;;22.60;95.20;;;;;;5144856;27;20055;-68
2022/06/02 14:19:49;;;;;;;2.03;1.50;;;22.60;94.70;;;;;;5115972;27;20420;-67
2022/06/02 14:22:31;;;;;;;2.63;1.30;;;22.20;95.30;;;;;;5119676;27;20111;-67
2022/06/02 14:25:02;;;;;;;2.15;1.33;;;22.30;95.50;;;;;;5120226;27;20550;-67
2022/06/02 14:27:52;;;;;;;3.72;1.60;;;22.40;95.00;;;;;;5141110;27;20031;-66
2022/06/02 14:30:32;;;;;;;1.77;1.63;;;22.50;94.50;;;;;;5142301;27;20464;-67
2022/06/02 14:33:11;;;;;;;2.17;1.33;;;22.20;95.10;;;;;;5144418;27;20031;-67
2022/06/02 14:35:49;;;;;;;2.53;1.50;;;22.00;95.10;;;;;;5144071;27;20033;-66
2022/06/02 14:38:42;;;;;;;2.65;1.50;;;21.70;95.30;;;;;;5142646;27;20035;-66